createdAt,value
2016-12-04T00:00:45.898Z,989.06
2016-12-04T00:01:54.577Z,989.06
2016-12-04T00:03:03.262Z,989.03
2016-12-04T00:04:11.947Z,989
2016-12-04T00:05:20.636Z,989.01
2016-12-04T00:06:29.345Z,989.04
2016-12-04T00:07:38.036Z,989.04
2016-12-04T00:08:46.747Z,989.06
2016-12-04T00:09:55.429Z,989.09
2016-12-04T00:11:04.143Z,989.1
2016-12-04T00:12:12.821Z,989.07
2016-12-04T00:13:21.505Z,989.04
2016-12-04T00:14:30.205Z,989.1
2016-12-04T00:15:38.888Z,989.1
2016-12-04T00:16:47.567Z,989.12
2016-12-04T00:17:56.250Z,989.14
2016-12-04T00:19:05.247Z,989.06
2016-12-04T00:20:13.929Z,989.01
2016-12-04T00:21:22.614Z,988.98
2016-12-04T00:22:31.300Z,988.95
2016-12-04T00:23:39.987Z,988.92
2016-12-04T00:24:48.669Z,988.94
2016-12-04T00:25:57.355Z,988.96
2016-12-04T00:27:06.036Z,989.01
2016-12-04T00:28:14.717Z,989
2016-12-04T00:29:23.397Z,988.98
2016-12-04T00:30:32.082Z,988.92
2016-12-04T00:31:40.804Z,988.94
2016-12-04T00:32:49.485Z,988.93
2016-12-04T00:33:58.187Z,988.92
2016-12-04T00:35:06.869Z,988.97
2016-12-04T00:36:15.552Z,989.03
2016-12-04T00:37:24.236Z,989.03
2016-12-04T00:38:32.919Z,989.07
2016-12-04T00:39:41.604Z,989.11
2016-12-04T00:40:50.286Z,989.05
2016-12-04T00:41:58.968Z,989.06
2016-12-04T00:43:07.658Z,989.11
2016-12-04T00:44:16.341Z,989.11
2016-12-04T00:45:25.030Z,989.17
2016-12-04T00:46:33.713Z,989.13
2016-12-04T00:47:42.397Z,989.11
2016-12-04T00:48:51.078Z,989.06
2016-12-04T00:49:59.762Z,989.03
2016-12-04T00:51:08.441Z,988.99
2016-12-04T00:52:17.122Z,989.01
2016-12-04T00:53:25.803Z,989.06
2016-12-04T00:54:34.488Z,989.07
2016-12-04T00:55:43.170Z,989.06
2016-12-04T00:56:51.850Z,989.07
2016-12-04T00:58:00.530Z,989.05
2016-12-04T00:59:09.218Z,989.05
2016-12-04T01:00:18.225Z,989.06
2016-12-04T01:01:26.908Z,989
2016-12-04T01:02:35.590Z,989.01
2016-12-04T01:03:44.271Z,989.05
2016-12-04T01:04:52.954Z,989
2016-12-04T01:06:01.636Z,989.01
2016-12-04T01:07:10.326Z,988.96
2016-12-04T01:08:19.011Z,988.89
2016-12-04T01:09:27.700Z,988.89
2016-12-04T01:10:36.385Z,988.87
2016-12-04T01:11:45.068Z,988.88
2016-12-04T01:12:53.750Z,988.94
2016-12-04T01:14:02.432Z,988.94
2016-12-04T01:15:11.152Z,988.89
2016-12-04T01:16:19.842Z,988.85
2016-12-04T01:17:28.524Z,988.85
2016-12-04T01:18:37.211Z,988.86
2016-12-04T01:19:45.899Z,988.87
2016-12-04T01:20:54.580Z,988.89
2016-12-04T01:22:03.272Z,988.91
2016-12-04T01:23:11.956Z,988.86
2016-12-04T01:24:20.635Z,988.87
2016-12-04T01:25:29.321Z,988.92
2016-12-04T01:26:38.005Z,989.02
2016-12-04T01:27:46.685Z,989
2016-12-04T01:28:55.368Z,989.01
2016-12-04T01:30:04.049Z,988.99
2016-12-04T01:31:12.728Z,988.95
2016-12-04T01:32:21.413Z,988.95
2016-12-04T01:33:30.099Z,988.93
2016-12-04T01:34:38.779Z,988.98
2016-12-04T01:35:47.461Z,988.91
2016-12-04T01:36:56.148Z,988.96
2016-12-04T01:38:04.831Z,988.97
2016-12-04T01:39:13.515Z,988.99
2016-12-04T01:40:22.196Z,988.98
2016-12-04T01:41:30.880Z,988.91
2016-12-04T01:42:39.563Z,988.85
2016-12-04T01:43:48.244Z,988.84
2016-12-04T01:44:56.929Z,988.87
2016-12-04T01:46:05.614Z,988.92
2016-12-04T01:47:14.308Z,988.93
2016-12-04T01:48:22.997Z,988.9
2016-12-04T01:49:31.683Z,988.89
2016-12-04T01:50:40.368Z,988.91
2016-12-04T01:51:49.058Z,988.89
2016-12-04T01:52:57.736Z,988.89
2016-12-04T01:54:06.418Z,988.9
2016-12-04T01:55:15.109Z,988.92
2016-12-04T01:56:23.827Z,988.93
2016-12-04T01:57:32.511Z,988.91
2016-12-04T01:58:41.197Z,988.85
2016-12-04T01:59:49.879Z,988.88
2016-12-04T02:00:58.564Z,988.88
2016-12-04T02:02:07.250Z,988.94
2016-12-04T02:03:15.928Z,988.94
2016-12-04T02:04:24.617Z,988.92
2016-12-04T02:05:33.302Z,988.93
2016-12-04T02:06:42.297Z,988.96
2016-12-04T02:07:50.979Z,988.92
2016-12-04T02:08:59.663Z,988.9
2016-12-04T02:10:08.346Z,988.87
2016-12-04T02:11:17.032Z,988.91
2016-12-04T02:12:25.715Z,988.89
2016-12-04T02:13:34.396Z,988.91
2016-12-04T02:14:43.077Z,988.93
2016-12-04T02:15:51.754Z,988.89
2016-12-04T02:17:00.455Z,988.88
2016-12-04T02:18:09.141Z,988.9
2016-12-04T02:19:17.823Z,988.98
2016-12-04T02:20:26.506Z,988.99
2016-12-04T02:21:35.194Z,989.01
2016-12-04T02:22:43.872Z,988.99
2016-12-04T02:23:52.554Z,988.96
2016-12-04T02:25:01.237Z,988.91
2016-12-04T02:26:09.922Z,988.89
2016-12-04T02:27:18.706Z,988.84
2016-12-04T02:28:27.390Z,988.79
2016-12-04T02:29:36.070Z,988.76
2016-12-04T02:30:44.751Z,988.75
2016-12-04T02:31:53.434Z,988.73
2016-12-04T02:33:02.121Z,988.68
2016-12-04T02:34:10.800Z,988.64
2016-12-04T02:35:19.481Z,988.58
2016-12-04T02:36:28.474Z,988.56
2016-12-04T02:37:37.152Z,988.57
2016-12-04T02:38:45.831Z,988.6
2016-12-04T02:39:54.509Z,988.57
2016-12-04T02:41:03.190Z,988.54
2016-12-04T02:42:11.879Z,988.44
2016-12-04T02:43:20.559Z,988.36
2016-12-04T02:44:29.269Z,988.34
2016-12-04T02:45:37.946Z,988.37
2016-12-04T02:46:46.655Z,988.49
2016-12-04T02:47:55.346Z,988.54
2016-12-04T02:49:04.024Z,988.53
2016-12-04T02:50:12.717Z,988.54
2016-12-04T02:51:21.394Z,988.51
2016-12-04T02:52:30.079Z,988.46
2016-12-04T02:53:38.762Z,988.52
2016-12-04T02:54:47.453Z,988.51
2016-12-04T02:55:56.136Z,988.44
2016-12-04T02:57:04.820Z,988.43
2016-12-04T02:58:13.507Z,988.43
2016-12-04T02:59:22.195Z,988.4
2016-12-04T03:00:30.879Z,988.37
2016-12-04T03:01:39.569Z,988.31
2016-12-04T03:02:48.257Z,988.25
2016-12-04T03:03:56.942Z,988.27
2016-12-04T03:05:05.628Z,988.38
2016-12-04T03:06:14.310Z,988.4
2016-12-04T03:07:23.150Z,988.46
2016-12-04T03:08:31.827Z,988.46
2016-12-04T03:09:40.507Z,988.5
2016-12-04T03:10:49.192Z,988.51
2016-12-04T03:11:57.874Z,988.53
2016-12-04T03:13:06.929Z,988.6
2016-12-04T03:14:15.608Z,988.67
2016-12-04T03:15:24.289Z,988.71
2016-12-04T03:16:32.969Z,988.67
2016-12-04T03:17:41.650Z,988.61
2016-12-04T03:18:50.378Z,988.56
2016-12-04T03:19:59.065Z,988.58
2016-12-04T03:21:07.750Z,988.55
2016-12-04T03:22:16.426Z,988.5
2016-12-04T03:23:25.108Z,988.49
2016-12-04T03:24:34.102Z,988.47
2016-12-04T03:25:42.779Z,988.37
2016-12-04T03:26:51.492Z,988.36
2016-12-04T03:28:00.174Z,988.35
2016-12-04T03:29:08.853Z,988.3
2016-12-04T03:30:17.536Z,988.33
2016-12-04T03:31:26.217Z,988.29
2016-12-04T03:32:34.897Z,988.31
2016-12-04T03:33:43.574Z,988.35
2016-12-04T03:34:52.260Z,988.28
2016-12-04T03:36:00.939Z,988.29
2016-12-04T03:37:09.622Z,988.34
2016-12-04T03:38:18.304Z,988.33
2016-12-04T03:39:26.982Z,988.36
2016-12-04T03:40:35.674Z,988.35
2016-12-04T03:41:44.352Z,988.41
2016-12-04T03:42:53.032Z,988.49
2016-12-04T03:44:02.431Z,988.55
2016-12-04T03:45:11.117Z,988.56
2016-12-04T03:46:19.798Z,988.55
2016-12-04T03:47:28.491Z,988.54
2016-12-04T03:48:37.180Z,988.51
2016-12-04T03:49:45.861Z,988.48
2016-12-04T03:50:54.542Z,988.45
2016-12-04T03:52:03.224Z,988.51
2016-12-04T03:53:11.901Z,988.51
2016-12-04T03:54:20.583Z,988.47
2016-12-04T03:55:29.262Z,988.5
2016-12-04T03:56:37.939Z,988.42
2016-12-04T03:57:46.621Z,988.49
2016-12-04T03:58:55.302Z,988.53
2016-12-04T04:00:03.981Z,988.57
2016-12-04T04:01:12.986Z,988.52
2016-12-04T04:02:21.668Z,988.45
2016-12-04T04:03:30.375Z,988.36
2016-12-04T04:04:39.055Z,988.31
2016-12-04T04:05:47.741Z,988.29
2016-12-04T04:06:56.423Z,988.19
2016-12-04T04:08:05.106Z,988.13
2016-12-04T04:09:13.789Z,988.13
2016-12-04T04:10:22.468Z,988.12
2016-12-04T04:11:31.164Z,988.17
2016-12-04T04:12:39.847Z,988.21
2016-12-04T04:13:48.532Z,988.24
2016-12-04T04:14:57.213Z,988.25
2016-12-04T04:16:05.898Z,988.22
2016-12-04T04:17:14.641Z,988.15
2016-12-04T04:18:23.327Z,988.14
2016-12-04T04:19:32.010Z,988.1
2016-12-04T04:20:40.695Z,988.11
2016-12-04T04:21:49.376Z,988.16
2016-12-04T04:22:58.377Z,988.2
2016-12-04T04:24:07.058Z,988.31
2016-12-04T04:25:15.743Z,988.36
2016-12-04T04:26:24.457Z,988.38
2016-12-04T04:27:33.139Z,988.33
2016-12-04T04:28:41.823Z,988.33
2016-12-04T04:29:50.503Z,988.28
2016-12-04T04:30:59.187Z,988.31
2016-12-04T04:32:08.189Z,988.31
2016-12-04T04:33:16.872Z,988.3
2016-12-04T04:34:25.560Z,988.29
2016-12-04T04:35:34.244Z,988.35
2016-12-04T04:36:42.929Z,988.29
2016-12-04T04:37:51.616Z,988.25
2016-12-04T04:39:00.305Z,988.23
2016-12-04T04:40:08.988Z,988.14
2016-12-04T04:41:17.669Z,988
2016-12-04T04:42:26.358Z,987.91
2016-12-04T04:43:35.045Z,987.84
2016-12-04T04:44:43.758Z,987.84
2016-12-04T04:45:52.440Z,987.95
2016-12-04T04:47:01.122Z,987.97
2016-12-04T04:48:10.157Z,988.01
2016-12-04T04:49:18.842Z,988.05
2016-12-04T04:50:27.528Z,988.07
2016-12-04T04:51:36.532Z,988.07
2016-12-04T04:52:45.219Z,988.11
2016-12-04T04:53:53.904Z,988.11
2016-12-04T04:55:02.588Z,988.13
2016-12-04T04:56:11.275Z,988.09
2016-12-04T04:57:19.961Z,988.13
2016-12-04T04:58:28.642Z,988.12
2016-12-04T04:59:37.326Z,988.06
2016-12-04T05:00:46.007Z,988.03
2016-12-04T05:01:54.693Z,988.03
2016-12-04T05:03:03.374Z,988.02
2016-12-04T05:04:12.060Z,987.97
2016-12-04T05:05:20.739Z,987.99
2016-12-04T05:06:29.425Z,988
2016-12-04T05:07:38.106Z,988.02
2016-12-04T05:08:46.786Z,988.02
2016-12-04T05:09:55.471Z,988.03
2016-12-04T05:11:04.187Z,987.99
2016-12-04T05:12:12.870Z,987.96
2016-12-04T05:13:21.550Z,987.98
2016-12-04T05:14:30.234Z,987.91
2016-12-04T05:15:38.920Z,987.9
2016-12-04T05:16:47.918Z,987.9
2016-12-04T05:17:56.601Z,987.91
2016-12-04T05:19:05.282Z,987.96
2016-12-04T05:20:13.969Z,987.98
2016-12-04T05:21:22.652Z,988.03
2016-12-04T05:22:31.337Z,988.01
2016-12-04T05:23:40.022Z,987.97
2016-12-04T05:24:48.703Z,987.98
2016-12-04T05:25:57.387Z,987.94
2016-12-04T05:27:06.071Z,987.88
2016-12-04T05:28:14.753Z,987.88
2016-12-04T05:29:23.435Z,987.87
2016-12-04T05:30:32.120Z,987.86
2016-12-04T05:31:40.801Z,987.8
2016-12-04T05:32:49.807Z,987.8
2016-12-04T05:33:58.490Z,987.78
2016-12-04T05:35:07.180Z,987.73
2016-12-04T05:36:15.870Z,987.72
2016-12-04T05:37:24.553Z,987.75
2016-12-04T05:38:33.234Z,987.73
2016-12-04T05:39:41.916Z,987.81
2016-12-04T05:40:50.602Z,987.82
2016-12-04T05:41:59.292Z,987.86
2016-12-04T05:43:07.978Z,987.89
2016-12-04T05:44:16.660Z,987.88
2016-12-04T05:45:25.351Z,987.88
2016-12-04T05:46:34.034Z,987.86
2016-12-04T05:47:42.717Z,987.82
2016-12-04T05:48:51.406Z,987.85
2016-12-04T05:50:00.092Z,987.85
2016-12-04T05:51:08.779Z,987.9
2016-12-04T05:52:17.470Z,987.93
2016-12-04T05:53:26.158Z,987.93
2016-12-04T05:54:34.846Z,987.94
2016-12-04T05:55:43.533Z,987.9
2016-12-04T05:56:52.217Z,987.78
2016-12-04T05:58:00.910Z,987.69
2016-12-04T05:59:09.588Z,987.63
2016-12-04T06:00:18.273Z,987.69
2016-12-04T06:01:26.960Z,987.72
2016-12-04T06:02:35.972Z,987.79
2016-12-04T06:03:44.649Z,987.83
2016-12-04T06:04:53.329Z,987.83
2016-12-04T06:06:02.013Z,987.8
2016-12-04T06:07:10.701Z,987.88
2016-12-04T06:08:19.385Z,987.83
2016-12-04T06:09:28.095Z,987.87
2016-12-04T06:10:36.781Z,987.92
2016-12-04T06:11:45.467Z,987.92
2016-12-04T06:12:54.155Z,987.97
2016-12-04T06:14:02.845Z,988.02
2016-12-04T06:15:11.529Z,988.02
2016-12-04T06:16:20.214Z,988.05
2016-12-04T06:17:28.897Z,988.06
2016-12-04T06:18:37.573Z,988
2016-12-04T06:19:46.253Z,988.03
2016-12-04T06:20:54.938Z,987.98
2016-12-04T06:22:03.619Z,987.97
2016-12-04T06:23:12.613Z,987.93
2016-12-04T06:24:21.323Z,987.92
2016-12-04T06:25:30.005Z,987.89
2016-12-04T06:26:38.690Z,987.92
2016-12-04T06:27:47.381Z,987.85
2016-12-04T06:28:56.071Z,987.89
2016-12-04T06:30:04.753Z,987.86
2016-12-04T06:31:13.440Z,987.87
2016-12-04T06:32:22.122Z,987.86
2016-12-04T06:33:30.805Z,987.84
2016-12-04T06:34:39.496Z,987.82
2016-12-04T06:35:48.211Z,987.83
2016-12-04T06:36:56.894Z,987.86
2016-12-04T06:38:05.584Z,987.82
2016-12-04T06:39:14.268Z,987.83
2016-12-04T06:40:22.949Z,987.85
2016-12-04T06:41:31.659Z,987.86
2016-12-04T06:42:40.344Z,987.89
2016-12-04T06:43:49.029Z,987.94
2016-12-04T06:44:57.712Z,988
2016-12-04T06:46:06.399Z,988.04
2016-12-04T06:47:15.084Z,988.02
2016-12-04T06:48:23.768Z,988.03
2016-12-04T06:49:32.454Z,988.02
2016-12-04T06:50:41.135Z,987.98
2016-12-04T06:51:49.854Z,988
2016-12-04T06:52:58.537Z,988.01
2016-12-04T06:54:07.216Z,987.98
2016-12-04T06:55:15.903Z,987.97
2016-12-04T06:56:24.584Z,987.91
2016-12-04T06:57:33.268Z,987.85
2016-12-04T06:58:41.951Z,987.84
2016-12-04T06:59:50.632Z,987.78
2016-12-04T07:00:59.319Z,987.8
2016-12-04T07:02:08.056Z,987.93
2016-12-04T07:03:16.742Z,988
2016-12-04T07:04:25.424Z,988.01
2016-12-04T07:05:34.105Z,987.96
2016-12-04T07:06:42.791Z,987.92
2016-12-04T07:07:51.480Z,987.89
2016-12-04T07:09:00.166Z,987.89
2016-12-04T07:10:08.853Z,987.91
2016-12-04T07:11:17.540Z,987.93
2016-12-04T07:12:26.218Z,987.93
2016-12-04T07:13:34.904Z,987.92
2016-12-04T07:14:43.585Z,987.93
2016-12-04T07:15:52.272Z,987.93
2016-12-04T07:17:00.964Z,987.89
2016-12-04T07:18:09.648Z,987.88
2016-12-04T07:19:18.333Z,987.9
2016-12-04T07:20:27.334Z,987.85
2016-12-04T07:21:36.014Z,987.83
2016-12-04T07:22:44.694Z,987.8
2016-12-04T07:23:53.377Z,987.82
2016-12-04T07:25:02.064Z,987.82
2016-12-04T07:26:10.746Z,987.82
2016-12-04T07:27:19.430Z,987.87
2016-12-04T07:28:28.120Z,987.85
2016-12-04T07:29:36.799Z,987.9
2016-12-04T07:30:45.480Z,987.88
2016-12-04T07:31:54.160Z,987.88
2016-12-04T07:33:02.843Z,987.9
2016-12-04T07:34:11.529Z,987.92
2016-12-04T07:35:20.213Z,987.94
2016-12-04T07:36:28.893Z,987.96
2016-12-04T07:37:37.582Z,987.97
2016-12-04T07:38:46.294Z,987.96
2016-12-04T07:39:54.981Z,987.95
2016-12-04T07:41:03.671Z,987.98
2016-12-04T07:42:12.349Z,987.96
2016-12-04T07:43:21.037Z,987.94
2016-12-04T07:44:29.724Z,987.99
2016-12-04T07:45:38.413Z,988.04
2016-12-04T07:46:47.096Z,988.12
2016-12-04T07:47:55.779Z,988.13
2016-12-04T07:49:04.465Z,988.1
2016-12-04T07:50:13.149Z,988.09
2016-12-04T07:51:21.831Z,988.05
2016-12-04T07:52:30.523Z,988.04
2016-12-04T07:53:39.208Z,988.03
2016-12-04T07:54:47.892Z,988.01
2016-12-04T07:55:56.575Z,987.99
2016-12-04T07:57:05.260Z,987.99
2016-12-04T07:58:13.944Z,987.96
2016-12-04T07:59:22.632Z,987.96
2016-12-04T08:00:31.322Z,987.96
2016-12-04T08:01:40.011Z,987.96
2016-12-04T08:02:48.700Z,987.99
2016-12-04T08:03:57.388Z,988.06
2016-12-04T08:05:06.069Z,988.02
2016-12-04T08:06:14.751Z,988
2016-12-04T08:07:23.434Z,988
2016-12-04T08:08:32.118Z,987.98
2016-12-04T08:09:40.805Z,987.97
2016-12-04T08:10:49.529Z,987.99
2016-12-04T08:11:58.215Z,987.95
2016-12-04T08:13:06.898Z,987.95
2016-12-04T08:14:15.580Z,987.95
2016-12-04T08:15:24.256Z,988.03
2016-12-04T08:16:32.938Z,988
2016-12-04T08:17:41.622Z,988.04
2016-12-04T08:18:50.303Z,988.07
2016-12-04T08:19:58.988Z,988.02
2016-12-04T08:21:07.675Z,988.01
2016-12-04T08:22:16.358Z,987.94
2016-12-04T08:23:25.043Z,987.98
2016-12-04T08:24:33.727Z,987.97
2016-12-04T08:25:42.411Z,987.96
2016-12-04T08:26:51.096Z,987.95
2016-12-04T08:27:59.780Z,988
2016-12-04T08:29:08.782Z,987.97
2016-12-04T08:30:17.791Z,987.93
2016-12-04T08:31:26.477Z,987.95
2016-12-04T08:32:35.169Z,987.97
2016-12-04T08:33:43.853Z,987.96
2016-12-04T08:34:52.535Z,988.01
2016-12-04T08:36:01.229Z,988.07
2016-12-04T08:37:10.240Z,988.09
2016-12-04T08:38:18.924Z,988.1
2016-12-04T08:39:27.614Z,988.08
2016-12-04T08:40:36.298Z,988.08
2016-12-04T08:41:44.984Z,988.05
2016-12-04T08:42:53.671Z,988.05
2016-12-04T08:44:02.361Z,987.95
2016-12-04T08:45:11.051Z,987.95
2016-12-04T08:46:19.738Z,988.01
2016-12-04T08:47:28.423Z,988.03
2016-12-04T08:48:37.109Z,988.05
2016-12-04T08:49:45.794Z,988.03
2016-12-04T08:50:54.524Z,988.09
2016-12-04T08:52:03.206Z,988.08
2016-12-04T08:53:11.891Z,988.07
2016-12-04T08:54:20.575Z,988.06
2016-12-04T08:55:29.578Z,988.01
2016-12-04T08:56:38.263Z,987.97
2016-12-04T08:57:46.960Z,987.94
2016-12-04T08:58:55.643Z,987.9
2016-12-04T09:00:04.328Z,987.84
2016-12-04T09:01:13.012Z,987.9
2016-12-04T09:02:21.724Z,988.02
2016-12-04T09:03:30.413Z,988.1
2016-12-04T09:04:39.120Z,988.2
2016-12-04T09:05:47.801Z,988.24
2016-12-04T09:06:56.490Z,988.22
2016-12-04T09:08:05.174Z,988.24
2016-12-04T09:09:13.862Z,988.27
2016-12-04T09:10:22.548Z,988.34
2016-12-04T09:11:31.228Z,988.33
2016-12-04T09:12:39.911Z,988.21
2016-12-04T09:13:48.592Z,988.09
2016-12-04T09:14:57.279Z,988.16
2016-12-04T09:16:05.964Z,988.22
2016-12-04T09:17:14.653Z,988.23
2016-12-04T09:18:23.372Z,988.25
2016-12-04T09:19:32.083Z,988.27
2016-12-04T09:20:40.798Z,988.33
2016-12-04T09:21:49.479Z,988.31
2016-12-04T09:22:58.164Z,988.28
2016-12-04T09:24:06.847Z,988.21
2016-12-04T09:25:15.536Z,988.22
2016-12-04T09:26:24.220Z,988.21
2016-12-04T09:27:32.906Z,988.24
2016-12-04T09:28:41.591Z,988.3
2016-12-04T09:29:50.276Z,988.27
2016-12-04T09:30:58.959Z,988.31
2016-12-04T09:32:07.645Z,988.28
2016-12-04T09:33:16.332Z,988.2
2016-12-04T09:34:25.033Z,988.14
2016-12-04T09:35:34.028Z,988.16
2016-12-04T09:36:42.713Z,988.2
2016-12-04T09:37:51.398Z,988.23
2016-12-04T09:39:00.083Z,988.22
2016-12-04T09:40:08.776Z,988.28
2016-12-04T09:41:17.462Z,988.13
2016-12-04T09:42:26.165Z,988.13
2016-12-04T09:43:35.171Z,988.13
2016-12-04T09:44:43.859Z,988.15
2016-12-04T09:45:52.545Z,988.13
2016-12-04T09:47:01.233Z,988.14
2016-12-04T09:48:09.917Z,988.12
2016-12-04T09:49:18.600Z,988.14
2016-12-04T09:50:27.292Z,988.17
2016-12-04T09:51:35.974Z,988.21
2016-12-04T09:52:44.657Z,988.27
2016-12-04T09:53:53.344Z,988.23
2016-12-04T09:55:02.028Z,988.19
2016-12-04T09:56:10.723Z,988.24
2016-12-04T09:57:19.407Z,988.21
2016-12-04T09:58:28.120Z,988.15
2016-12-04T09:59:36.804Z,988.12
2016-12-04T10:00:45.490Z,988.11
2016-12-04T10:01:54.177Z,988.11
2016-12-04T10:03:03.174Z,988.1
2016-12-04T10:04:11.860Z,988.14
2016-12-04T10:05:20.546Z,988.09
2016-12-04T10:06:29.230Z,988.08
2016-12-04T10:07:37.913Z,988.06
2016-12-04T10:08:46.596Z,988.06
2016-12-04T10:09:55.594Z,988.08
2016-12-04T10:11:04.282Z,988.05
2016-12-04T10:12:12.971Z,988.11
2016-12-04T10:13:21.656Z,988.1
2016-12-04T10:14:30.343Z,988.13
2016-12-04T10:15:39.342Z,988.09
2016-12-04T10:16:48.028Z,988.13
2016-12-04T10:17:56.712Z,988.11
2016-12-04T10:19:05.717Z,988.12
2016-12-04T10:20:14.405Z,988.11
2016-12-04T10:21:23.090Z,988.1
2016-12-04T10:22:31.775Z,988.11
2016-12-04T10:23:40.464Z,988.02
2016-12-04T10:24:49.154Z,988.03
2016-12-04T10:25:57.842Z,987.91
2016-12-04T10:27:06.527Z,987.97
2016-12-04T10:28:15.220Z,987.99
2016-12-04T10:29:23.933Z,987.97
2016-12-04T10:30:32.619Z,988
2016-12-04T10:31:41.310Z,987.98
2016-12-04T10:32:50.308Z,988.01
2016-12-04T10:33:59.023Z,987.98
2016-12-04T10:35:07.705Z,988.02
2016-12-04T10:36:16.388Z,988
2016-12-04T10:37:25.099Z,987.95
2016-12-04T10:38:33.779Z,988.01
2016-12-04T10:39:42.467Z,988.02
2016-12-04T10:40:51.158Z,987.97
2016-12-04T10:41:59.843Z,987.91
2016-12-04T10:43:08.538Z,987.91
2016-12-04T10:44:17.542Z,987.83
2016-12-04T10:45:26.231Z,987.79
2016-12-04T10:46:34.919Z,987.78
2016-12-04T10:47:43.604Z,987.75
2016-12-04T10:48:52.291Z,987.76
2016-12-04T10:50:01.287Z,987.74
2016-12-04T10:51:09.982Z,987.7
2016-12-04T10:52:18.672Z,987.77
2016-12-04T10:53:27.362Z,987.75
2016-12-04T10:54:36.048Z,987.77
2016-12-04T10:55:45.059Z,987.78
2016-12-04T10:56:53.748Z,987.71
2016-12-04T10:58:02.439Z,987.72
2016-12-04T10:59:11.129Z,987.69
2016-12-04T11:00:19.813Z,987.68
2016-12-04T11:01:28.503Z,987.67
2016-12-04T11:02:37.187Z,987.63
2016-12-04T11:03:45.873Z,987.66
2016-12-04T11:04:54.561Z,987.63
2016-12-04T11:06:03.251Z,987.62
2016-12-04T11:07:11.944Z,987.53
2016-12-04T11:08:20.635Z,987.54
2016-12-04T11:09:29.322Z,987.47
2016-12-04T11:10:38.005Z,987.5
2016-12-04T11:11:46.704Z,987.5
2016-12-04T11:12:55.395Z,987.43
2016-12-04T11:14:04.090Z,987.42
2016-12-04T11:15:12.780Z,987.39
2016-12-04T11:16:21.467Z,987.35
2016-12-04T11:17:30.154Z,987.38
2016-12-04T11:18:38.842Z,987.36
2016-12-04T11:19:47.532Z,987.33
2016-12-04T11:20:56.233Z,987.34
2016-12-04T11:22:04.924Z,987.32
2016-12-04T11:23:13.617Z,987.32
2016-12-04T11:24:22.307Z,987.25
2016-12-04T11:25:31.001Z,987.27
2016-12-04T11:26:39.700Z,987.25
2016-12-04T11:27:48.386Z,987.3
2016-12-04T11:28:57.078Z,987.32
2016-12-04T11:30:06.084Z,987.33
2016-12-04T11:31:14.829Z,987.3
2016-12-04T11:32:23.827Z,987.26
2016-12-04T11:33:32.514Z,987.25
2016-12-04T11:34:41.201Z,987.24
2016-12-04T11:35:49.889Z,987.2
2016-12-04T11:36:58.584Z,987.18
2016-12-04T11:38:07.272Z,987.2
2016-12-04T11:39:15.960Z,987.13
2016-12-04T11:40:24.660Z,987.16
2016-12-04T11:41:33.672Z,987.16
2016-12-04T11:42:42.367Z,987.15
2016-12-04T11:43:51.087Z,987.11
2016-12-04T11:44:59.773Z,987.06
2016-12-04T11:46:08.461Z,987.07
2016-12-04T11:47:17.158Z,987.09
2016-12-04T11:48:25.849Z,987.11
2016-12-04T11:49:34.535Z,987.11
2016-12-04T11:50:43.223Z,987.06
2016-12-04T11:51:51.916Z,987.09
2016-12-04T11:53:00.606Z,987.12
2016-12-04T11:54:09.293Z,987.14
2016-12-04T11:55:17.983Z,987.19
2016-12-04T11:56:26.671Z,987.18
2016-12-04T11:57:35.364Z,987.17
2016-12-04T11:58:44.058Z,987.15
2016-12-04T11:59:52.748Z,987.12
2016-12-04T12:01:01.470Z,987.1
2016-12-04T12:02:10.166Z,987.1
2016-12-04T12:03:18.861Z,987.04
2016-12-04T12:04:27.548Z,987.02
2016-12-04T12:05:36.237Z,986.97
2016-12-04T12:06:44.924Z,986.95
2016-12-04T12:07:53.928Z,986.95
2016-12-04T12:09:02.618Z,986.93
2016-12-04T12:10:11.304Z,986.95
2016-12-04T12:11:19.992Z,986.94
2016-12-04T12:12:28.709Z,986.93
2016-12-04T12:13:37.399Z,986.95
2016-12-04T12:14:46.409Z,986.92
2016-12-04T12:15:55.414Z,986.95
2016-12-04T12:17:04.109Z,986.94
2016-12-04T12:18:12.801Z,986.92
2016-12-04T12:19:21.493Z,986.87
2016-12-04T12:20:30.187Z,986.84
2016-12-04T12:21:38.876Z,986.82
2016-12-04T12:22:50.207Z,986.8
2016-12-04T12:23:58.899Z,986.8
2016-12-04T12:25:07.619Z,986.78
2016-12-04T12:26:16.318Z,986.75
2016-12-04T12:27:25.010Z,986.72
2016-12-04T12:28:33.855Z,986.73
2016-12-04T12:29:42.861Z,986.71
2016-12-04T12:30:51.553Z,986.66
2016-12-04T12:32:00.257Z,986.68
2016-12-04T12:33:08.950Z,986.65
2016-12-04T12:34:17.989Z,986.65
2016-12-04T12:35:26.680Z,986.61
2016-12-04T12:36:35.362Z,986.62
2016-12-04T12:37:44.054Z,986.67
2016-12-04T12:38:53.372Z,986.62
2016-12-04T12:40:02.119Z,986.65
2016-12-04T12:41:10.807Z,986.59
2016-12-04T12:42:19.503Z,986.6
2016-12-04T12:43:28.196Z,986.57
2016-12-04T12:44:36.885Z,986.51
2016-12-04T12:45:45.637Z,986.41
2016-12-04T12:46:54.322Z,986.41
2016-12-04T12:48:03.012Z,986.43
2016-12-04T12:49:11.703Z,986.43
2016-12-04T12:50:20.398Z,986.4
2016-12-04T12:51:29.144Z,986.39
2016-12-04T12:52:37.834Z,986.39
2016-12-04T12:53:46.525Z,986.39
2016-12-04T12:54:55.214Z,986.44
2016-12-04T12:56:04.225Z,986.41
2016-12-04T12:57:12.970Z,986.4
2016-12-04T12:58:21.655Z,986.46
2016-12-04T12:59:30.341Z,986.43
2016-12-04T13:00:39.050Z,986.49
2016-12-04T13:01:47.738Z,986.4
2016-12-04T13:02:56.528Z,986.4
2016-12-04T13:04:05.225Z,986.43
2016-12-04T13:05:13.914Z,986.45
2016-12-04T13:06:22.599Z,986.44
2016-12-04T13:07:31.288Z,986.45
2016-12-04T13:08:40.025Z,986.46
2016-12-04T13:09:48.716Z,986.37
2016-12-04T13:10:57.414Z,986.36
2016-12-04T13:12:06.105Z,986.32
2016-12-04T13:13:14.801Z,986.33
2016-12-04T13:14:23.546Z,986.34
2016-12-04T13:15:32.557Z,986.28
2016-12-04T13:16:41.244Z,986.21
2016-12-04T13:17:49.933Z,986.24
2016-12-04T13:18:58.621Z,986.22
2016-12-04T13:20:07.675Z,986.24
2016-12-04T13:21:16.365Z,986.27
2016-12-04T13:22:25.064Z,986.25
2016-12-04T13:23:33.759Z,986.21
2016-12-04T13:24:42.443Z,986.21
2016-12-04T13:25:51.180Z,986.23
2016-12-04T13:26:59.868Z,986.18
2016-12-04T13:28:08.558Z,986.15
2016-12-04T13:29:17.247Z,986.11
2016-12-04T13:30:26.254Z,986.15
2016-12-04T13:31:34.989Z,986.17
2016-12-04T13:32:43.679Z,986.22
2016-12-04T13:33:52.388Z,986.22
2016-12-04T13:35:01.075Z,986.17
2016-12-04T13:36:09.764Z,986.21
2016-12-04T13:37:18.497Z,986.21
2016-12-04T13:38:27.504Z,986.2
2016-12-04T13:39:36.187Z,986.15
2016-12-04T13:40:44.871Z,986.11
2016-12-04T13:41:53.556Z,986.08
2016-12-04T13:43:02.289Z,986.05
2016-12-04T13:44:10.975Z,985.99
2016-12-04T13:45:19.660Z,986
2016-12-04T13:46:28.343Z,986
2016-12-04T13:47:37.029Z,986.01
2016-12-04T13:48:45.764Z,986.03
2016-12-04T13:49:54.445Z,986.05
2016-12-04T13:51:03.136Z,986.11
2016-12-04T13:52:11.825Z,986.1
2016-12-04T13:53:20.512Z,986.02
2016-12-04T13:54:29.245Z,985.98
2016-12-04T13:55:37.928Z,985.96
2016-12-04T13:56:46.615Z,985.87
2016-12-04T13:57:55.301Z,985.88
2016-12-04T13:59:03.986Z,985.88
2016-12-04T14:00:12.722Z,985.85
2016-12-04T14:01:21.410Z,985.86
2016-12-04T14:02:30.133Z,985.86
2016-12-04T14:03:38.822Z,985.9
2016-12-04T14:04:47.504Z,985.85
2016-12-04T14:05:56.240Z,985.82
2016-12-04T14:07:04.932Z,985.86
2016-12-04T14:08:13.618Z,985.89
2016-12-04T14:09:22.302Z,985.85
2016-12-04T14:10:31.001Z,985.84
2016-12-04T14:11:39.733Z,985.84
2016-12-04T14:12:48.421Z,985.84
2016-12-04T14:13:57.135Z,985.88
2016-12-04T14:15:05.821Z,985.89
2016-12-04T14:16:14.508Z,985.89
2016-12-04T14:17:23.244Z,985.86
2016-12-04T14:18:31.934Z,985.91
2016-12-04T14:19:40.620Z,985.9
2016-12-04T14:20:49.308Z,985.9
2016-12-04T14:21:57.995Z,985.87